Aransas Pass — WDF5061 — position and weather

sailwx.info

Track history (hours):
 
Tides and Currents Weather Stations Pressure Air Temp Water Temp Dewpoint Dewpoint Depression Visibility Wind Speed Wind Dir Waves Ship Positions

Aransas Pass

Owner: Higman Barge Lines, Inc., Orange, TX. More information available from US FCC via Universal Licensing System and Coast Guard Vessel Documentation Center.

Last reported at 2014-Dec-19 23:19 UTC. Time now 2014-Dec-20 00:07 UTC.
Position N 29°47' W 095°04'.

Length 26 m; draft 3 m.

Type: Towing. MMSI: 367458930.

Date/timePositionNaut miles runAvg speedWind from/ knotsBaromVisibWave heightAir tempDewpointWater temp
2014-Dec-19 23:19N 29°47' W 095°04'0 0.0
2014-Dec-19 22:33N 29°47' W 095°04'1 0.9
2014-Dec-19 21:33N 29°47' W 095°05'0 0.1
2014-Dec-19 20:33N 29°47' W 095°05'0 0.0
2014-Dec-19 19:33N 29°47' W 095°05'0 0.0
2014-Dec-19 18:33N 29°47' W 095°05'0 0.0
2014-Dec-19 17:33N 29°47' W 095°05'0 0.0
2014-Dec-19 16:33N 29°47' W 095°05'0 0.0
2014-Dec-19 15:33N 29°47' W 095°05'0 0.0
2014-Dec-19 14:33N 29°47' W 095°05'0 0.0
2014-Dec-19 13:30N 29°47' W 095°05'0 0.0
2014-Dec-19 12:31N 29°47' W 095°05'0 0.0
2014-Dec-19 11:28N 29°47' W 095°05'0 0.0
2014-Dec-19 10:33N 29°47' W 095°05'0 0.0
2014-Dec-19 09:32N 29°47' W 095°05'0 0.0
2014-Dec-19 08:33N 29°47' W 095°05'0 0.0
2014-Dec-19 07:32N 29°47' W 095°05'0 0.0
2014-Dec-19 06:33N 29°47' W 095°05'0 0.0
2014-Dec-19 05:25N 29°47' W 095°05'0 0.0
2014-Dec-19 04:31N 29°47' W 095°05'0 0.0
2014-Dec-19 03:33N 29°47' W 095°05'0 0.0
2014-Dec-19 02:33N 29°47' W 095°05'0 0.0
2014-Dec-19 01:33N 29°47' W 095°05'0 0.0
2014-Dec-19 00:33N 29°47' W 095°05'0 0.1
2014-Dec-18 23:22N 29°47' W 095°05'4 4.6
2014-Dec-18 22:26N 29°44' W 095°09'3 3.1
2014-Dec-18 21:28N 29°44' W 095°12'0 0.1
2014-Dec-18 20:33N 29°45' W 095°12'0 0.0
2014-Dec-18 19:30N 29°45' W 095°12'0 0.0
2014-Dec-18 18:29N 29°45' W 095°12'0 0.0
2014-Dec-18 17:33N 29°45' W 095°12'0 0.0
2014-Dec-18 16:31N 29°45' W 095°12'0 0.0
2014-Dec-18 15:33N 29°45' W 095°12'0 0.0
2014-Dec-18 14:33N 29°45' W 095°12'5 0.4
2014-Dec-18 03:30N 29°44' W 095°07'3 2.5
2014-Dec-18 02:17N 29°47' W 095°05'0 0.0
2014-Dec-18 01:32N 29°47' W 095°05'0 0.0
2014-Dec-18 00:27N 29°47' W 095°05'0 0.1
2014-Dec-17 23:26N 29°47' W 095°05'0 0.0
2014-Dec-17 22:33N 29°47' W 095°05'0 0.0
2014-Dec-17 21:33N 29°47' W 095°05'0 0.0
2014-Dec-17 20:33N 29°47' W 095°05'0 0.0
2014-Dec-17 19:33N 29°47' W 095°05'0 0.0
2014-Dec-17 18:33N 29°47' W 095°05'0 0.0
2014-Dec-17 17:33N 29°47' W 095°05'0 0.0
2014-Dec-17 16:33N 29°47' W 095°05'0 0.0
2014-Dec-17 15:33N 29°47' W 095°05'0 0.0
2014-Dec-17 14:33N 29°47' W 095°05'0 0.0
2014-Dec-17 13:33N 29°47' W 095°05'0 0.0
2014-Dec-17 12:32N 29°47' W 095°05'0 0.0
2014-Dec-17 11:18N 29°47' W 095°05'0 0.0
2014-Dec-17 10:33N 29°47' W 095°05'0 0.0
2014-Dec-17 09:31N 29°47' W 095°05'0 0.0
2014-Dec-17 08:33N 29°47' W 095°05'0 0.0
2014-Dec-17 07:33N 29°47' W 095°05'0 0.0
2014-Dec-17 06:33N 29°47' W 095°05'0 0.0
2014-Dec-17 05:04N 29°47' W 095°05'0 0.0
2014-Dec-17 04:33N 29°47' W 095°05'0 0.0
2014-Dec-17 03:33N 29°47' W 095°05'0 0.0
2014-Dec-17 02:33N 29°47' W 095°05'0 0.0
2014-Dec-17 01:33N 29°47' W 095°05'0 0.0
2014-Dec-17 00:33N 29°47' W 095°05'0 0.0
2014-Dec-16 23:33N 29°47' W 095°05'2 1.9
2014-Dec-16 22:33N 29°46' W 095°07'0 0.0
2014-Dec-16 21:33N 29°46' W 095°07'0 0.0
2014-Dec-16 20:31N 29°46' W 095°07'0 0.0
2014-Dec-16 19:33N 29°46' W 095°07'0 0.0
2014-Dec-16 18:33N 29°46' W 095°07'0 0.3
2014-Dec-16 17:33N 29°46' W 095°06'0 0.3
2014-Dec-16 16:33N 29°46' W 095°07'2 2.0
2014-Dec-16 15:33N 29°47' W 095°05'0 0.0
2014-Dec-16 14:33N 29°47' W 095°05'0 0.0
2014-Dec-16 13:33N 29°47' W 095°05'0 0.0
2014-Dec-16 12:33N 29°47' W 095°05'0 0.0
2014-Dec-16 11:33N 29°47' W 095°05'0 0.0
2014-Dec-16 10:33N 29°47' W 095°05'0 0.0
2014-Dec-16 09:33N 29°47' W 095°05'0 0.0
2014-Dec-16 08:33N 29°47' W 095°05'0 0.0
2014-Dec-16 07:33N 29°47' W 095°05'0 0.0
2014-Dec-16 06:33N 29°47' W 095°05'0 0.0
2014-Dec-16 05:33N 29°47' W 095°05'0 0.0
2014-Dec-16 04:33N 29°47' W 095°05'0 0.0
2014-Dec-16 03:32N 29°47' W 095°05'0 0.0
2014-Dec-16 02:33N 29°47' W 095°05'0 0.0
2014-Dec-16 01:33N 29°47' W 095°05'0 0.0
2014-Dec-16 00:31N 29°47' W 095°05'0 0.0
2014-Dec-15 23:33N 29°47' W 095°05'0 0.0
2014-Dec-15 22:33N 29°47' W 095°05'0 0.0
2014-Dec-15 21:33N 29°47' W 095°05'0 0.0
2014-Dec-15 20:33N 29°47' W 095°05'0 0.0
2014-Dec-15 19:33N 29°47' W 095°05'0 0.0
2014-Dec-15 18:33N 29°47' W 095°05'0 0.1
2014-Dec-15 17:33N 29°47' W 095°05'0 0.1
2014-Dec-15 16:33N 29°47' W 095°05'0 0.0
2014-Dec-15 15:33N 29°47' W 095°05'0 0.0
2014-Dec-15 14:33N 29°47' W 095°05'0 0.0
2014-Dec-15 13:33N 29°47' W 095°05'0 0.0
2014-Dec-15 00:18N 29°47' W 095°05'0 0.0
2014-Dec-14 23:21N 29°47' W 095°05'0 0.0
2014-Dec-14 22:32N 29°47' W 095°05'0 0.1
2014-Dec-14 21:33N 29°47' W 095°05'0 0.1
2014-Dec-14 20:33N 29°47' W 095°05'0 0.0
2014-Dec-14 19:33N 29°47' W 095°05'0 0.0
2014-Dec-14 18:33N 29°47' W 095°05'0 0.0
2014-Dec-14 17:33N 29°47' W 095°05'0 0.0
2014-Dec-14 16:33N 29°47' W 095°05'0 0.0
2014-Dec-14 15:33N 29°47' W 095°05'0 0.1
2014-Dec-14 14:33N 29°47' W 095°05'0 0.0
2014-Dec-14 13:33N 29°47' W 095°05'0 0.0
2014-Dec-14 12:32N 29°47' W 095°05'0 0.0
2014-Dec-14 11:33N 29°47' W 095°05'0 0.0
2014-Dec-14 10:33N 29°47' W 095°05'0 0.0
2014-Dec-14 09:33N 29°47' W 095°05'0 0.0
2014-Dec-14 08:33N 29°47' W 095°05'0 0.0
2014-Dec-14 07:31N 29°47' W 095°05'0 0.0
2014-Dec-14 06:33N 29°47' W 095°05'0 0.0
2014-Dec-14 05:32N 29°47' W 095°05'0 0.0
2014-Dec-14 04:30N 29°47' W 095°05'0 0.0
2014-Dec-14 03:33N 29°47' W 095°05'0 0.0
2014-Dec-14 02:33N 29°47' W 095°05'0 0.0
2014-Dec-14 01:33N 29°47' W 095°05'0 0.0
2014-Dec-14 00:33N 29°47' W 095°05'0 0.0
2014-Dec-13 23:32N 29°47' W 095°05'0 0.0
2014-Dec-13 22:33N 29°47' W 095°05'0 0.0
2014-Dec-13 21:33N 29°47' W 095°05'0 0.1
2014-Dec-13 20:33N 29°47' W 095°05'0 0.0
2014-Dec-13 19:33N 29°47' W 095°05'0 0.0
2014-Dec-13 18:33N 29°47' W 095°05'0 0.0
2014-Dec-13 17:33N 29°47' W 095°05'0 0.0
2014-Dec-13 16:33N 29°47' W 095°05'0 0.0
2014-Dec-13 15:33N 29°47' W 095°05'0 0.0
2014-Dec-13 14:33N 29°47' W 095°05'0 0.0
2014-Dec-13 13:33N 29°47' W 095°05'0 0.0
2014-Dec-13 12:33N 29°47' W 095°05'0 0.0
2014-Dec-13 11:33N 29°47' W 095°05'0 0.0
2014-Dec-13 10:33N 29°47' W 095°05'0 0.0
2014-Dec-13 09:33N 29°47' W 095°05'0 0.0
2014-Dec-13 08:33N 29°47' W 095°05'0 0.0
2014-Dec-13 07:33N 29°47' W 095°05'0 0.0
2014-Dec-13 06:33N 29°47' W 095°05'0 0.1
2014-Dec-13 05:33N 29°47' W 095°05'0 0.0
2014-Dec-13 04:33N 29°47' W 095°05'0 0.0
2014-Dec-13 03:33N 29°47' W 095°05'0 0.0
2014-Dec-13 02:33N 29°47' W 095°05'0 0.0
2014-Dec-13 01:33N 29°47' W 095°05'0 0.1
2014-Dec-13 00:33N 29°47' W 095°05'0 0.1
2014-Dec-12 23:33N 29°47' W 095°05'0 0.0
2014-Dec-12 22:33N 29°47' W 095°05'0 0.0
2014-Dec-12 21:33N 29°47' W 095°05'0 0.0
2014-Dec-12 20:33N 29°47' W 095°05'0 0.0
2014-Dec-12 19:33N 29°47' W 095°05'0 0.0
2014-Dec-12 18:33N 29°47' W 095°05'0 0.0
2014-Dec-12 17:33N 29°47' W 095°05'2 1.9
2014-Dec-12 16:33N 29°46' W 095°07'49544954.1
2014-Dec-12 15:33N 29°46' E 000°00'49544962.4
2014-Dec-12 14:34N 29°46' W 095°07'1 1.2
2014-Dec-12 13:33N 29°45' W 095°07'0 0.0
2014-Dec-12 12:33N 29°45' W 095°07'1 1.1
2014-Dec-12 11:33N 29°45' W 095°06'0 0.0
2014-Dec-12 10:33N 29°45' W 095°06'1 1.1
2014-Dec-12 09:34N 29°46' W 095°05'1 0.8
2014-Dec-12 08:33N 29°47' W 095°05'0 0.0
2014-Dec-12 07:33N 29°47' W 095°05'0 0.0
2014-Dec-12 06:33N 29°47' W 095°05'0 0.0
2014-Dec-12 05:33N 29°47' W 095°05'0 0.0
2014-Dec-12 04:33N 29°47' W 095°05'0 0.0
2014-Dec-12 03:33N 29°47' W 095°05'0 0.0
2014-Dec-12 02:33N 29°47' W 095°05'0 0.0
2014-Dec-12 01:33N 29°47' W 095°05'0 0.0
2014-Dec-12 00:33N 29°47' W 095°05'0 0.0
2014-Dec-11 23:33N 29°47' W 095°05'0 0.0
2014-Dec-11 22:33N 29°47' W 095°05'0 0.0
2014-Dec-11 21:33N 29°47' W 095°05'0 0.0
2014-Dec-11 20:33N 29°47' W 095°05'0 0.0
2014-Dec-11 19:33N 29°47' W 095°05'0 0.0
2014-Dec-11 18:33N 29°47' W 095°05'0 0.0
2014-Dec-11 17:33N 29°47' W 095°05'0 0.0
2014-Dec-11 16:33N 29°47' W 095°05'0 0.0
2014-Dec-11 15:33N 29°47' W 095°05'0 0.0
2014-Dec-11 14:33N 29°47' W 095°05'0 0.0
2014-Dec-11 13:33N 29°47' W 095°05'0 0.0
2014-Dec-11 12:33N 29°47' W 095°05'0 0.0
2014-Dec-11 11:33N 29°47' W 095°05'0 0.0
2014-Dec-11 10:33N 29°47' W 095°05'0 0.0
2014-Dec-11 09:33N 29°47' W 095°05'0 0.0
2014-Dec-11 08:33N 29°47' W 095°05'0 0.0
2014-Dec-11 07:33N 29°47' W 095°05'0 0.0
2014-Dec-11 06:32N 29°47' W 095°05'0 0.0
2014-Dec-11 05:33N 29°47' W 095°05'0 0.0
2014-Dec-11 04:33N 29°47' W 095°05'0 0.0
2014-Dec-11 03:33N 29°47' W 095°05'0 0.0
2014-Dec-11 02:33N 29°47' W 095°05'0 0.0
2014-Dec-11 01:33N 29°47' W 095°05'0 0.0
2014-Dec-11 00:34N 29°47' W 095°05'3 2.8
2014-Dec-10 23:33N 29°44' W 095°07'1 1.3
2014-Dec-10 22:33N 29°44' W 095°08'0 0.0
2014-Dec-10 21:33N 29°44' W 095°08'0 0.0
2014-Dec-10 20:33N 29°44' W 095°08'0 0.0
2014-Dec-10 19:33N 29°44' W 095°08'0 0.0
2014-Dec-10 18:33N 29°44' W 095°08'0 0.0
2014-Dec-10 17:33N 29°44' W 095°08'0 0.0
2014-Dec-10 16:33N 29°44' W 095°08'0 0.0
2014-Dec-10 15:33N 29°44' W 095°08'0 0.0
2014-Dec-10 14:33N 29°44' W 095°08'0 0.0
2014-Dec-10 13:33N 29°44' W 095°08'0 0.0
2014-Dec-10 12:33N 29°44' W 095°08'0 0.0
2014-Dec-10 11:33N 29°44' W 095°08'0 0.2
2014-Dec-10 10:33N 29°44' W 095°08'3 2.8
2014-Dec-10 09:33N 29°46' W 095°06'1 0.8
2014-Dec-10 08:33N 29°46' W 095°05'4 3.6
2014-Dec-10 07:33N 29°44' W 095°08'0 0.0
2014-Dec-10 06:33N 29°44' W 095°08'0 0.0
2014-Dec-10 05:33N 29°44' W 095°08'0 0.0
2014-Dec-10 04:33N 29°44' W 095°08'0 0.0
2014-Dec-10 03:33N 29°44' W 095°08'0 0.0
2014-Dec-10 02:33N 29°44' W 095°08'0 0.0
2014-Dec-10 01:33N 29°44' W 095°08'0 0.0
2014-Dec-10 00:33N 29°44' W 095°08'0 0.0
2014-Dec-09 23:33N 29°44' W 095°08'  
Track history (hours):
 
Tides and Currents Weather Stations Pressure Air Temp Water Temp Dewpoint Dewpoint Depression Visibility Wind Speed Wind Dir Waves Ship Positions

Aransas Pass

Owner: Higman Barge Lines, Inc., Orange, TX. More information available from US FCC via Universal Licensing System and Coast Guard Vessel Documentation Center.

Last reported at 2014-Dec-19 23:19 UTC. Time now 2014-Dec-20 00:07 UTC.
Position N 29°47' W 095°04'.

Length 26 m; draft 3 m.

Type: Towing. MMSI: 367458930.

Date/timePositionNaut miles runAvg speedWind from/ knotsBaromVisibWave heightAir tempDewpointWater temp
2014-Dec-19 23:19N 29°47' W 095°04'0 0.0
2014-Dec-19 22:33N 29°47' W 095°04'1 0.9
2014-Dec-19 21:33N 29°47' W 095°05'0 0.1
2014-Dec-19 20:33N 29°47' W 095°05'0 0.0
2014-Dec-19 19:33N 29°47' W 095°05'0 0.0
2014-Dec-19 18:33N 29°47' W 095°05'0 0.0
2014-Dec-19 17:33N 29°47' W 095°05'0 0.0
2014-Dec-19 16:33N 29°47' W 095°05'0 0.0
2014-Dec-19 15:33N 29°47' W 095°05'0 0.0
2014-Dec-19 14:33N 29°47' W 095°05'0 0.0
2014-Dec-19 13:30N 29°47' W 095°05'0 0.0
2014-Dec-19 12:31N 29°47' W 095°05'0 0.0
2014-Dec-19 11:28N 29°47' W 095°05'0 0.0
2014-Dec-19 10:33N 29°47' W 095°05'0 0.0
2014-Dec-19 09:32N 29°47' W 095°05'0 0.0
2014-Dec-19 08:33N 29°47' W 095°05'0 0.0
2014-Dec-19 07:32N 29°47' W 095°05'0 0.0
2014-Dec-19 06:33N 29°47' W 095°05'0 0.0
2014-Dec-19 05:25N 29°47' W 095°05'0 0.0
2014-Dec-19 04:31N 29°47' W 095°05'0 0.0
2014-Dec-19 03:33N 29°47' W 095°05'0 0.0
2014-Dec-19 02:33N 29°47' W 095°05'0 0.0
2014-Dec-19 01:33N 29°47' W 095°05'0 0.0
2014-Dec-19 00:33N 29°47' W 095°05'0 0.1
2014-Dec-18 23:22N 29°47' W 095°05'4 4.6
2014-Dec-18 22:26N 29°44' W 095°09'3 3.1
2014-Dec-18 21:28N 29°44' W 095°12'0 0.1
2014-Dec-18 20:33N 29°45' W 095°12'0 0.0
2014-Dec-18 19:30N 29°45' W 095°12'0 0.0
2014-Dec-18 18:29N 29°45' W 095°12'0 0.0
2014-Dec-18 17:33N 29°45' W 095°12'0 0.0
2014-Dec-18 16:31N 29°45' W 095°12'0 0.0
2014-Dec-18 15:33N 29°45' W 095°12'0 0.0
2014-Dec-18 14:33N 29°45' W 095°12'5 0.4
2014-Dec-18 03:30N 29°44' W 095°07'3 2.5
2014-Dec-18 02:17N 29°47' W 095°05'0 0.0
2014-Dec-18 01:32N 29°47' W 095°05'0 0.0
2014-Dec-18 00:27N 29°47' W 095°05'0 0.1
2014-Dec-17 23:26N 29°47' W 095°05'0 0.0
2014-Dec-17 22:33N 29°47' W 095°05'0 0.0
2014-Dec-17 21:33N 29°47' W 095°05'0 0.0
2014-Dec-17 20:33N 29°47' W 095°05'0 0.0
2014-Dec-17 19:33N 29°47' W 095°05'0 0.0
2014-Dec-17 18:33N 29°47' W 095°05'0 0.0
2014-Dec-17 17:33N 29°47' W 095°05'0 0.0
2014-Dec-17 16:33N 29°47' W 095°05'0 0.0
2014-Dec-17 15:33N 29°47' W 095°05'0 0.0
2014-Dec-17 14:33N 29°47' W 095°05'0 0.0
2014-Dec-17 13:33N 29°47' W 095°05'0 0.0
2014-Dec-17 12:32N 29°47' W 095°05'0 0.0
2014-Dec-17 11:18N 29°47' W 095°05'0 0.0
2014-Dec-17 10:33N 29°47' W 095°05'0 0.0
2014-Dec-17 09:31N 29°47' W 095°05'0 0.0
2014-Dec-17 08:33N 29°47' W 095°05'0 0.0
2014-Dec-17 07:33N 29°47' W 095°05'0 0.0
2014-Dec-17 06:33N 29°47' W 095°05'0 0.0
2014-Dec-17 05:04N 29°47' W 095°05'0 0.0
2014-Dec-17 04:33N 29°47' W 095°05'0 0.0
2014-Dec-17 03:33N 29°47' W 095°05'0 0.0
2014-Dec-17 02:33N 29°47' W 095°05'0 0.0
2014-Dec-17 01:33N 29°47' W 095°05'0 0.0
2014-Dec-17 00:33N 29°47' W 095°05'0 0.0
2014-Dec-16 23:33N 29°47' W 095°05'2 1.9
2014-Dec-16 22:33N 29°46' W 095°07'0 0.0
2014-Dec-16 21:33N 29°46' W 095°07'0 0.0
2014-Dec-16 20:31N 29°46' W 095°07'0 0.0
2014-Dec-16 19:33N 29°46' W 095°07'0 0.0
2014-Dec-16 18:33N 29°46' W 095°07'0 0.3
2014-Dec-16 17:33N 29°46' W 095°06'0 0.3
2014-Dec-16 16:33N 29°46' W 095°07'2 2.0
2014-Dec-16 15:33N 29°47' W 095°05'0 0.0
2014-Dec-16 14:33N 29°47' W 095°05'0 0.0
2014-Dec-16 13:33N 29°47' W 095°05'0 0.0
2014-Dec-16 12:33N 29°47' W 095°05'0 0.0
2014-Dec-16 11:33N 29°47' W 095°05'0 0.0
2014-Dec-16 10:33N 29°47' W 095°05'0 0.0
2014-Dec-16 09:33N 29°47' W 095°05'0 0.0
2014-Dec-16 08:33N 29°47' W 095°05'0 0.0
2014-Dec-16 07:33N 29°47' W 095°05'0 0.0
2014-Dec-16 06:33N 29°47' W 095°05'0 0.0
2014-Dec-16 05:33N 29°47' W 095°05'0 0.0
2014-Dec-16 04:33N 29°47' W 095°05'0 0.0
2014-Dec-16 03:32N 29°47' W 095°05'0 0.0
2014-Dec-16 02:33N 29°47' W 095°05'0 0.0
2014-Dec-16 01:33N 29°47' W 095°05'0 0.0
2014-Dec-16 00:31N 29°47' W 095°05'0 0.0
2014-Dec-15 23:33N 29°47' W 095°05'0 0.0
2014-Dec-15 22:33N 29°47' W 095°05'0 0.0
2014-Dec-15 21:33N 29°47' W 095°05'0 0.0
2014-Dec-15 20:33N 29°47' W 095°05'0 0.0
2014-Dec-15 19:33N 29°47' W 095°05'0 0.0
2014-Dec-15 18:33N 29°47' W 095°05'0 0.1
2014-Dec-15 17:33N 29°47' W 095°05'0 0.1
2014-Dec-15 16:33N 29°47' W 095°05'0 0.0
2014-Dec-15 15:33N 29°47' W 095°05'0 0.0
2014-Dec-15 14:33N 29°47' W 095°05'0 0.0
2014-Dec-15 13:33N 29°47' W 095°05'0 0.0
2014-Dec-15 00:18N 29°47' W 095°05'0 0.0
2014-Dec-14 23:21N 29°47' W 095°05'0 0.0
2014-Dec-14 22:32N 29°47' W 095°05'0 0.1
2014-Dec-14 21:33N 29°47' W 095°05'0 0.1
2014-Dec-14 20:33N 29°47' W 095°05'0 0.0
2014-Dec-14 19:33N 29°47' W 095°05'0 0.0
2014-Dec-14 18:33N 29°47' W 095°05'0 0.0
2014-Dec-14 17:33N 29°47' W 095°05'0 0.0
2014-Dec-14 16:33N 29°47' W 095°05'0 0.0
2014-Dec-14 15:33N 29°47' W 095°05'0 0.1
2014-Dec-14 14:33N 29°47' W 095°05'0 0.0
2014-Dec-14 13:33N 29°47' W 095°05'0 0.0
2014-Dec-14 12:32N 29°47' W 095°05'0 0.0
2014-Dec-14 11:33N 29°47' W 095°05'0 0.0
2014-Dec-14 10:33N 29°47' W 095°05'0 0.0
2014-Dec-14 09:33N 29°47' W 095°05'0 0.0
2014-Dec-14 08:33N 29°47' W 095°05'0 0.0
2014-Dec-14 07:31N 29°47' W 095°05'0 0.0
2014-Dec-14 06:33N 29°47' W 095°05'0 0.0
2014-Dec-14 05:32N 29°47' W 095°05'0 0.0
2014-Dec-14 04:30N 29°47' W 095°05'0 0.0
2014-Dec-14 03:33N 29°47' W 095°05'0 0.0
2014-Dec-14 02:33N 29°47' W 095°05'0 0.0
2014-Dec-14 01:33N 29°47' W 095°05'0 0.0
2014-Dec-14 00:33N 29°47' W 095°05'0 0.0
2014-Dec-13 23:32N 29°47' W 095°05'0 0.0
2014-Dec-13 22:33N 29°47' W 095°05'0 0.0
2014-Dec-13 21:33N 29°47' W 095°05'0 0.1
2014-Dec-13 20:33N 29°47' W 095°05'0 0.0
2014-Dec-13 19:33N 29°47' W 095°05'0 0.0
2014-Dec-13 18:33N 29°47' W 095°05'0 0.0
2014-Dec-13 17:33N 29°47' W 095°05'0 0.0
2014-Dec-13 16:33N 29°47' W 095°05'0 0.0
2014-Dec-13 15:33N 29°47' W 095°05'0 0.0
2014-Dec-13 14:33N 29°47' W 095°05'0 0.0
2014-Dec-13 13:33N 29°47' W 095°05'0 0.0
2014-Dec-13 12:33N 29°47' W 095°05'0 0.0
2014-Dec-13 11:33N 29°47' W 095°05'0 0.0
2014-Dec-13 10:33N 29°47' W 095°05'0 0.0
2014-Dec-13 09:33N 29°47' W 095°05'0 0.0
2014-Dec-13 08:33N 29°47' W 095°05'0 0.0
2014-Dec-13 07:33N 29°47' W 095°05'0 0.0
2014-Dec-13 06:33N 29°47' W 095°05'0 0.1
2014-Dec-13 05:33N 29°47' W 095°05'0 0.0
2014-Dec-13 04:33N 29°47' W 095°05'0 0.0
2014-Dec-13 03:33N 29°47' W 095°05'0 0.0
2014-Dec-13 02:33N 29°47' W 095°05'0 0.0
2014-Dec-13 01:33N 29°47' W 095°05'0 0.1
2014-Dec-13 00:33N 29°47' W 095°05'0 0.1
2014-Dec-12 23:33N 29°47' W 095°05'0 0.0
2014-Dec-12 22:33N 29°47' W 095°05'0 0.0
2014-Dec-12 21:33N 29°47' W 095°05'0 0.0
2014-Dec-12 20:33N 29°47' W 095°05'0 0.0
2014-Dec-12 19:33N 29°47' W 095°05'0 0.0
2014-Dec-12 18:33N 29°47' W 095°05'0 0.0
2014-Dec-12 17:33N 29°47' W 095°05'2 1.9
2014-Dec-12 16:33N 29°46' W 095°07'49544954.1
2014-Dec-12 15:33N 29°46' E 000°00'49544962.4
2014-Dec-12 14:34N 29°46' W 095°07'1 1.2
2014-Dec-12 13:33N 29°45' W 095°07'0 0.0
2014-Dec-12 12:33N 29°45' W 095°07'1 1.1
2014-Dec-12 11:33N 29°45' W 095°06'0 0.0
2014-Dec-12 10:33N 29°45' W 095°06'1 1.1
2014-Dec-12 09:34N 29°46' W 095°05'1 0.8
2014-Dec-12 08:33N 29°47' W 095°05'0 0.0
2014-Dec-12 07:33N 29°47' W 095°05'0 0.0
2014-Dec-12 06:33N 29°47' W 095°05'0 0.0
2014-Dec-12 05:33N 29°47' W 095°05'0 0.0
2014-Dec-12 04:33N 29°47' W 095°05'0 0.0
2014-Dec-12 03:33N 29°47' W 095°05'0 0.0
2014-Dec-12 02:33N 29°47' W 095°05'0 0.0
2014-Dec-12 01:33N 29°47' W 095°05'0 0.0
2014-Dec-12 00:33N 29°47' W 095°05'0 0.0
2014-Dec-11 23:33N 29°47' W 095°05'0 0.0
2014-Dec-11 22:33N 29°47' W 095°05'0 0.0
2014-Dec-11 21:33N 29°47' W 095°05'0 0.0
2014-Dec-11 20:33N 29°47' W 095°05'0 0.0
2014-Dec-11 19:33N 29°47' W 095°05'0 0.0
2014-Dec-11 18:33N 29°47' W 095°05'0 0.0
2014-Dec-11 17:33N 29°47' W 095°05'0 0.0
2014-Dec-11 16:33N 29°47' W 095°05'0 0.0
2014-Dec-11 15:33N 29°47' W 095°05'0 0.0
2014-Dec-11 14:33N 29°47' W 095°05'0 0.0
2014-Dec-11 13:33N 29°47' W 095°05'0 0.0
2014-Dec-11 12:33N 29°47' W 095°05'0 0.0
2014-Dec-11 11:33N 29°47' W 095°05'0 0.0
2014-Dec-11 10:33N 29°47' W 095°05'0 0.0
2014-Dec-11 09:33N 29°47' W 095°05'0 0.0
2014-Dec-11 08:33N 29°47' W 095°05'0 0.0
2014-Dec-11 07:33N 29°47' W 095°05'0 0.0
2014-Dec-11 06:32N 29°47' W 095°05'0 0.0
2014-Dec-11 05:33N 29°47' W 095°05'0 0.0
2014-Dec-11 04:33N 29°47' W 095°05'0 0.0
2014-Dec-11 03:33N 29°47' W 095°05'0 0.0
2014-Dec-11 02:33N 29°47' W 095°05'0 0.0
2014-Dec-11 01:33N 29°47' W 095°05'0 0.0
2014-Dec-11 00:34N 29°47' W 095°05'3 2.8
2014-Dec-10 23:33N 29°44' W 095°07'1 1.3
2014-Dec-10 22:33N 29°44' W 095°08'0 0.0
2014-Dec-10 21:33N 29°44' W 095°08'0 0.0
2014-Dec-10 20:33N 29°44' W 095°08'0 0.0
2014-Dec-10 19:33N 29°44' W 095°08'0 0.0
2014-Dec-10 18:33N 29°44' W 095°08'0 0.0
2014-Dec-10 17:33N 29°44' W 095°08'0 0.0
2014-Dec-10 16:33N 29°44' W 095°08'0 0.0
2014-Dec-10 15:33N 29°44' W 095°08'0 0.0
2014-Dec-10 14:33N 29°44' W 095°08'0 0.0
2014-Dec-10 13:33N 29°44' W 095°08'0 0.0
2014-Dec-10 12:33N 29°44' W 095°08'0 0.0
2014-Dec-10 11:33N 29°44' W 095°08'0 0.2
2014-Dec-10 10:33N 29°44' W 095°08'3 2.8
2014-Dec-10 09:33N 29°46' W 095°06'1 0.8
2014-Dec-10 08:33N 29°46' W 095°05'4 3.6
2014-Dec-10 07:33N 29°44' W 095°08'0 0.0
2014-Dec-10 06:33N 29°44' W 095°08'0 0.0
2014-Dec-10 05:33N 29°44' W 095°08'0 0.0
2014-Dec-10 04:33N 29°44' W 095°08'0 0.0
2014-Dec-10 03:33N 29°44' W 095°08'0 0.0
2014-Dec-10 02:33N 29°44' W 095°08'0 0.0
2014-Dec-10 01:33N 29°44' W 095°08'0 0.0
2014-Dec-10 00:33N 29°44' W 095°08'0 0.0
2014-Dec-09 23:33N 29°44' W 095°08'  

Dump ship's entire track history